Elberta, Michigan
Current Conditions -  °F | °C
As of 3:15 PM on Thursday 23 Oct 2014 (Local Time) from KFKS Reporting Station
Clear Clear  
Wind Chill: 56°   Ceiling: Unl
Heat Index: 56°   Visibility: 10mi
Dew Point: 38°   Wind: 7mph
Humidity: 51%   Direction: 200°SSW
Pressure: 30.12"   Gusts: NA
Location:  44.62°N, 86.23°W
Report Text: KFKS 231915Z AUTO 20006KT 10SM CLR 14/03 A3012 RMK AO2 T01350034
Loading
Personal Weather Stations






























Interactive Weather Map
Tropical Storm Tracking
New forecast layout! Learn more

10-Day Weather Forecast

Advertisements
Track Severe Weather on mobile